sensor_id;sensor_type;location;lat;lon;timestamp;P1;durP1;ratioP1;P2;durP2;ratioP2
253;SDS011;590;48.772;8.846;2022-08-19T00:01:39;16.83;;;15.97;;
253;SDS011;590;48.772;8.846;2022-08-19T00:04:11;16.53;;;15.73;;
253;SDS011;590;48.772;8.846;2022-08-19T00:06:41;16.90;;;16.03;;
253;SDS011;590;48.772;8.846;2022-08-19T00:09:12;17.93;;;17.03;;
253;SDS011;590;48.772;8.846;2022-08-19T00:11:41;17.60;;;16.70;;
253;SDS011;590;48.772;8.846;2022-08-19T00:14:10;17.10;;;16.20;;
253;SDS011;590;48.772;8.846;2022-08-19T00:16:41;18.73;;;17.80;;
253;SDS011;590;48.772;8.846;2022-08-19T00:19:12;18.30;;;17.13;;
253;SDS011;590;48.772;8.846;2022-08-19T00:21:41;17.73;;;16.83;;
253;SDS011;590;48.772;8.846;2022-08-19T00:24:11;16.20;;;15.40;;
253;SDS011;590;48.772;8.846;2022-08-19T00:26:40;19.27;;;18.27;;
253;SDS011;590;48.772;8.846;2022-08-19T00:29:11;17.83;;;16.93;;
253;SDS011;590;48.772;8.846;2022-08-19T00:31:39;17.40;;;16.50;;
253;SDS011;590;48.772;8.846;2022-08-19T00:34:09;17.27;;;16.37;;
253;SDS011;590;48.772;8.846;2022-08-19T00:36:39;18.00;;;17.10;;
253;SDS011;590;48.772;8.846;2022-08-19T00:39:08;16.93;;;16.03;;
253;SDS011;590;48.772;8.846;2022-08-19T00:41:37;18.70;;;17.80;;
253;SDS011;590;48.772;8.846;2022-08-19T00:44:07;18.83;;;17.90;;
253;SDS011;590;48.772;8.846;2022-08-19T00:46:37;17.30;;;16.40;;
253;SDS011;590;48.772;8.846;2022-08-19T00:49:08;19.07;;;18.07;;
253;SDS011;590;48.772;8.846;2022-08-19T00:51:42;19.00;;;18.03;;
253;SDS011;590;48.772;8.846;2022-08-19T00:54:12;17.73;;;16.83;;
253;SDS011;590;48.772;8.846;2022-08-19T00:56:41;17.87;;;16.97;;
253;SDS011;590;48.772;8.846;2022-08-19T00:59:10;17.43;;;16.53;;
253;SDS011;590;48.772;8.846;2022-08-19T01:01:59;17.27;;;16.37;;
253;SDS011;590;48.772;8.846;2022-08-19T01:04:27;17.33;;;16.43;;
253;SDS011;590;48.772;8.846;2022-08-19T01:06:57;17.57;;;16.67;;
253;SDS011;590;48.772;8.846;2022-08-19T01:09:26;18.70;;;17.80;;
253;SDS011;590;48.772;8.846;2022-08-19T01:11:55;18.40;;;17.50;;
253;SDS011;590;48.772;8.846;2022-08-19T01:14:24;18.47;;;17.57;;
253;SDS011;590;48.772;8.846;2022-08-19T01:16:52;18.23;;;17.33;;
253;SDS011;590;48.772;8.846;2022-08-19T01:19:27;19.80;;;18.80;;
253;SDS011;590;48.772;8.846;2022-08-19T01:22:12;19.70;;;18.70;;
253;SDS011;590;48.772;8.846;2022-08-19T01:24:56;18.03;;;17.13;;
253;SDS011;590;48.772;8.846;2022-08-19T01:27:25;18.40;;;17.47;;
253;SDS011;590;48.772;8.846;2022-08-19T01:30:09;19.67;;;18.67;;
253;SDS011;590;48.772;8.846;2022-08-19T01:32:39;16.87;;;16.00;;
253;SDS011;590;48.772;8.846;2022-08-19T01:35:07;18.00;;;17.10;;
253;SDS011;590;48.772;8.846;2022-08-19T01:37:43;18.27;;;17.37;;
253;SDS011;590;48.772;8.846;2022-08-19T01:40:16;16.87;;;16.00;;
253;SDS011;590;48.772;8.846;2022-08-19T01:42:46;20.23;;;19.23;;
253;SDS011;590;48.772;8.846;2022-08-19T01:45:15;18.63;;;17.73;;
253;SDS011;590;48.772;8.846;2022-08-19T01:47:43;18.33;;;17.43;;
253;SDS011;590;48.772;8.846;2022-08-19T01:50:26;19.43;;;18.43;;
253;SDS011;590;48.772;8.846;2022-08-19T01:52:54;18.70;;;17.77;;
253;SDS011;590;48.772;8.846;2022-08-19T01:55:33;18.17;;;17.27;;
253;SDS011;590;48.772;8.846;2022-08-19T01:58:06;19.40;;;18.40;;
253;SDS011;590;48.772;8.846;2022-08-19T02:00:37;19.07;;;18.10;;
253;SDS011;590;48.772;8.846;2022-08-19T02:03:05;19.70;;;18.70;;
253;SDS011;590;48.772;8.846;2022-08-19T02:05:35;18.37;;;17.47;;
253;SDS011;590;48.772;8.846;2022-08-19T02:08:03;18.97;;;18.00;;
253;SDS011;590;48.772;8.846;2022-08-19T02:10:33;19.10;;;18.10;;
253;SDS011;590;48.772;8.846;2022-08-19T02:13:05;19.30;;;18.30;;
253;SDS011;590;48.772;8.846;2022-08-19T02:15:33;19.90;;;18.90;;
253;SDS011;590;48.772;8.846;2022-08-19T02:18:01;18.57;;;17.67;;
253;SDS011;590;48.772;8.846;2022-08-19T02:20:29;20.37;;;19.37;;
253;SDS011;590;48.772;8.846;2022-08-19T02:22:57;18.00;;;17.10;;
253;SDS011;590;48.772;8.846;2022-08-19T02:25:25;19.80;;;18.80;;
253;SDS011;590;48.772;8.846;2022-08-19T02:27:54;18.13;;;17.23;;
253;SDS011;590;48.772;8.846;2022-08-19T02:30:22;18.70;;;17.80;;
253;SDS011;590;48.772;8.846;2022-08-19T02:32:50;19.57;;;18.57;;
253;SDS011;590;48.772;8.846;2022-08-19T02:35:19;20.37;;;19.37;;
253;SDS011;590;48.772;8.846;2022-08-19T02:37:48;21.50;;;20.40;;
253;SDS011;590;48.772;8.846;2022-08-19T02:40:33;20.10;;;19.10;;
253;SDS011;590;48.772;8.846;2022-08-19T02:43:04;21.53;;;20.43;;
253;SDS011;590;48.772;8.846;2022-08-19T02:45:37;21.33;;;20.23;;
253;SDS011;590;48.772;8.846;2022-08-19T02:48:07;21.30;;;20.20;;
253;SDS011;590;48.772;8.846;2022-08-19T02:50:47;20.90;;;19.90;;
253;SDS011;590;48.772;8.846;2022-08-19T02:53:22;20.57;;;19.57;;
253;SDS011;590;48.772;8.846;2022-08-19T02:55:51;22.00;;;20.90;;
253;SDS011;590;48.772;8.846;2022-08-19T02:58:21;22.53;;;21.43;;
253;SDS011;590;48.772;8.846;2022-08-19T03:00:52;22.27;;;21.17;;
253;SDS011;590;48.772;8.846;2022-08-19T03:03:21;21.67;;;20.57;;
253;SDS011;590;48.772;8.846;2022-08-19T03:05:49;21.17;;;20.10;;
253;SDS011;590;48.772;8.846;2022-08-19T03:08:22;22.50;;;21.40;;
253;SDS011;590;48.772;8.846;2022-08-19T03:10:51;22.23;;;21.13;;
253;SDS011;590;48.772;8.846;2022-08-19T03:13:21;22.10;;;21.00;;
253;SDS011;590;48.772;8.846;2022-08-19T03:15:50;21.23;;;20.13;;
253;SDS011;590;48.772;8.846;2022-08-19T03:18:18;24.33;;;23.13;;
253;SDS011;590;48.772;8.846;2022-08-19T03:20:50;22.90;;;21.80;;
253;SDS011;590;48.772;8.846;2022-08-19T03:23:20;23.70;;;22.50;;
253;SDS011;590;48.772;8.846;2022-08-19T03:25:50;20.73;;;19.73;;
253;SDS011;590;48.772;8.846;2022-08-19T03:28:41;22.73;;;21.63;;
253;SDS011;590;48.772;8.846;2022-08-19T03:31:18;24.60;;;23.40;;
253;SDS011;590;48.772;8.846;2022-08-19T03:34:08;23.60;;;22.40;;
253;SDS011;590;48.772;8.846;2022-08-19T03:36:38;23.40;;;22.20;;
253;SDS011;590;48.772;8.846;2022-08-19T03:39:07;22.57;;;21.47;;
253;SDS011;590;48.772;8.846;2022-08-19T03:41:37;22.27;;;21.17;;
253;SDS011;590;48.772;8.846;2022-08-19T03:44:13;23.90;;;22.70;;
253;SDS011;590;48.772;8.846;2022-08-19T03:46:44;23.70;;;22.50;;
253;SDS011;590;48.772;8.846;2022-08-19T03:49:13;23.83;;;22.63;;
253;SDS011;590;48.772;8.846;2022-08-19T03:51:44;23.33;;;22.13;;
253;SDS011;590;48.772;8.846;2022-08-19T03:54:14;23.87;;;22.67;;
253;SDS011;590;48.772;8.846;2022-08-19T03:56:44;23.60;;;22.40;;
253;SDS011;590;48.772;8.846;2022-08-19T03:59:16;22.13;;;21.03;;
253;SDS011;590;48.772;8.846;2022-08-19T04:01:45;23.83;;;22.63;;
253;SDS011;590;48.772;8.846;2022-08-19T04:04:14;23.23;;;22.03;;
253;SDS011;590;48.772;8.846;2022-08-19T04:06:45;22.40;;;21.30;;
253;SDS011;590;48.772;8.846;2022-08-19T04:09:13;22.73;;;21.63;;
253;SDS011;590;48.772;8.846;2022-08-19T04:11:42;24.87;;;23.67;;
253;SDS011;590;48.772;8.846;2022-08-19T04:14:17;23.60;;;22.40;;
253;SDS011;590;48.772;8.846;2022-08-19T04:16:47;23.07;;;21.93;;
253;SDS011;590;48.772;8.846;2022-08-19T04:19:16;25.60;;;24.30;;
253;SDS011;590;48.772;8.846;2022-08-19T04:21:53;24.70;;;23.50;;
253;SDS011;590;48.772;8.846;2022-08-19T04:24:21;26.30;;;24.37;;
253;SDS011;590;48.772;8.846;2022-08-19T04:26:50;23.13;;;21.97;;
253;SDS011;590;48.772;8.846;2022-08-19T04:29:20;22.97;;;21.87;;
253;SDS011;590;48.772;8.846;2022-08-19T04:31:53;23.73;;;22.53;;
253;SDS011;590;48.772;8.846;2022-08-19T04:34:23;23.90;;;22.70;;
253;SDS011;590;48.772;8.846;2022-08-19T04:36:53;22.87;;;21.77;;
253;SDS011;590;48.772;8.846;2022-08-19T04:39:24;25.27;;;24.00;;
253;SDS011;590;48.772;8.846;2022-08-19T04:42:14;24.67;;;23.47;;
253;SDS011;590;48.772;8.846;2022-08-19T04:45:04;23.13;;;21.97;;
253;SDS011;590;48.772;8.846;2022-08-19T04:47:38;24.23;;;23.03;;
253;SDS011;590;48.772;8.846;2022-08-19T04:50:17;26.57;;;25.27;;
253;SDS011;590;48.772;8.846;2022-08-19T04:52:46;24.73;;;23.53;;
253;SDS011;590;48.772;8.846;2022-08-19T04:55:14;24.33;;;23.13;;
253;SDS011;590;48.772;8.846;2022-08-19T04:57:42;22.63;;;21.53;;
253;SDS011;590;48.772;8.846;2022-08-19T05:00:12;23.37;;;22.17;;
253;SDS011;590;48.772;8.846;2022-08-19T05:02:40;23.60;;;22.40;;
253;SDS011;590;48.772;8.846;2022-08-19T05:05:08;24.60;;;23.40;;
253;SDS011;590;48.772;8.846;2022-08-19T05:07:36;24.07;;;22.87;;
253;SDS011;590;48.772;8.846;2022-08-19T05:10:07;23.97;;;22.77;;
253;SDS011;590;48.772;8.846;2022-08-19T05:12:35;23.30;;;22.10;;
253;SDS011;590;48.772;8.846;2022-08-19T05:15:04;25.40;;;24.10;;
253;SDS011;590;48.772;8.846;2022-08-19T05:17:36;24.23;;;23.03;;
253;SDS011;590;48.772;8.846;2022-08-19T05:20:05;23.43;;;22.23;;
253;SDS011;590;48.772;8.846;2022-08-19T05:22:52;24.73;;;23.53;;
253;SDS011;590;48.772;8.846;2022-08-19T05:25:21;22.57;;;21.47;;
253;SDS011;590;48.772;8.846;2022-08-19T05:27:51;24.90;;;23.70;;
253;SDS011;590;48.772;8.846;2022-08-19T05:30:19;25.40;;;24.10;;
253;SDS011;590;48.772;8.846;2022-08-19T05:33:08;22.93;;;21.80;;
253;SDS011;590;48.772;8.846;2022-08-19T05:35:37;25.13;;;23.90;;
253;SDS011;590;48.772;8.846;2022-08-19T05:38:07;24.03;;;22.83;;
253;SDS011;590;48.772;8.846;2022-08-19T05:40:37;23.20;;;22.00;;
253;SDS011;590;48.772;8.846;2022-08-19T05:43:06;24.37;;;23.17;;
253;SDS011;590;48.772;8.846;2022-08-19T05:45:37;25.57;;;24.27;;
253;SDS011;590;48.772;8.846;2022-08-19T05:48:06;25.77;;;24.47;;
253;SDS011;590;48.772;8.846;2022-08-19T05:50:37;24.43;;;23.23;;
253;SDS011;590;48.772;8.846;2022-08-19T05:53:06;23.73;;;22.53;;
253;SDS011;590;48.772;8.846;2022-08-19T05:55:35;23.87;;;22.67;;
253;SDS011;590;48.772;8.846;2022-08-19T05:58:04;23.30;;;22.10;;
253;SDS011;590;48.772;8.846;2022-08-19T06:00:33;24.67;;;23.43;;
253;SDS011;590;48.772;8.846;2022-08-19T06:03:02;22.30;;;21.20;;
253;SDS011;590;48.772;8.846;2022-08-19T06:05:40;24.87;;;23.67;;
253;SDS011;590;48.772;8.846;2022-08-19T06:08:17;24.63;;;23.43;;
253;SDS011;590;48.772;8.846;2022-08-19T06:11:11;25.60;;;24.30;;
253;SDS011;590;48.772;8.846;2022-08-19T06:13:41;23.70;;;22.50;;
253;SDS011;590;48.772;8.846;2022-08-19T06:16:09;24.53;;;23.33;;
253;SDS011;590;48.772;8.846;2022-08-19T06:18:37;22.40;;;21.30;;
253;SDS011;590;48.772;8.846;2022-08-19T06:21:06;23.50;;;22.30;;
253;SDS011;590;48.772;8.846;2022-08-19T06:23:34;22.60;;;21.50;;
253;SDS011;590;48.772;8.846;2022-08-19T06:26:02;22.40;;;21.30;;
253;SDS011;590;48.772;8.846;2022-08-19T06:28:30;22.10;;;21.00;;
253;SDS011;590;48.772;8.846;2022-08-19T06:30:59;22.10;;;21.00;;
253;SDS011;590;48.772;8.846;2022-08-19T06:33:33;23.40;;;22.20;;
253;SDS011;590;48.772;8.846;2022-08-19T06:36:01;21.40;;;20.30;;
253;SDS011;590;48.772;8.846;2022-08-19T06:38:31;22.23;;;21.13;;
253;SDS011;590;48.772;8.846;2022-08-19T06:41:01;20.17;;;19.17;;
253;SDS011;590;48.772;8.846;2022-08-19T06:43:33;21.30;;;20.20;;
253;SDS011;590;48.772;8.846;2022-08-19T06:46:26;22.53;;;21.43;;
253;SDS011;590;48.772;8.846;2022-08-19T06:48:59;20.97;;;19.93;;
253;SDS011;590;48.772;8.846;2022-08-19T06:51:27;21.63;;;20.53;;
253;SDS011;590;48.772;8.846;2022-08-19T06:53:58;21.10;;;20.00;;
253;SDS011;590;48.772;8.846;2022-08-19T06:56:27;18.77;;;17.83;;
253;SDS011;590;48.772;8.846;2022-08-19T06:59:01;19.63;;;18.63;;
253;SDS011;590;48.772;8.846;2022-08-19T07:01:33;20.40;;;19.40;;
253;SDS011;590;48.772;8.846;2022-08-19T07:04:04;21.30;;;20.20;;
253;SDS011;590;48.772;8.846;2022-08-19T07:06:37;20.17;;;19.17;;
253;SDS011;590;48.772;8.846;2022-08-19T07:09:12;20.20;;;19.20;;
253;SDS011;590;48.772;8.846;2022-08-19T07:11:44;20.30;;;19.30;;
253;SDS011;590;48.772;8.846;2022-08-19T07:14:14;20.30;;;19.30;;
253;SDS011;590;48.772;8.846;2022-08-19T07:16:46;19.43;;;18.43;;
253;SDS011;590;48.772;8.846;2022-08-19T07:19:15;21.30;;;20.20;;
253;SDS011;590;48.772;8.846;2022-08-19T07:21:45;19.80;;;18.80;;
253;SDS011;590;48.772;8.846;2022-08-19T07:24:16;22.33;;;21.23;;
253;SDS011;590;48.772;8.846;2022-08-19T07:26:44;18.97;;;18.00;;
253;SDS011;590;48.772;8.846;2022-08-19T07:29:18;20.37;;;19.37;;
253;SDS011;590;48.772;8.846;2022-08-19T07:31:51;21.43;;;20.33;;
253;SDS011;590;48.772;8.846;2022-08-19T07:34:22;20.97;;;19.93;;
253;SDS011;590;48.772;8.846;2022-08-19T07:36:51;20.37;;;19.37;;
253;SDS011;590;48.772;8.846;2022-08-19T07:39:23;19.43;;;18.43;;
253;SDS011;590;48.772;8.846;2022-08-19T07:41:53;19.13;;;18.13;;
253;SDS011;590;48.772;8.846;2022-08-19T07:44:21;19.67;;;18.67;;
253;SDS011;590;48.772;8.846;2022-08-19T07:46:51;20.57;;;19.27;;
253;SDS011;590;48.772;8.846;2022-08-19T07:49:21;19.70;;;18.70;;
253;SDS011;590;48.772;8.846;2022-08-19T07:51:50;18.17;;;17.27;;
253;SDS011;590;48.772;8.846;2022-08-19T07:54:22;18.10;;;17.20;;
253;SDS011;590;48.772;8.846;2022-08-19T07:56:51;19.17;;;18.17;;
253;SDS011;590;48.772;8.846;2022-08-19T07:59:19;19.80;;;18.80;;
253;SDS011;590;48.772;8.846;2022-08-19T08:01:48;19.07;;;18.07;;
253;SDS011;590;48.772;8.846;2022-08-19T08:04:17;19.30;;;18.30;;
253;SDS011;590;48.772;8.846;2022-08-19T08:07:03;18.37;;;17.47;;
253;SDS011;590;48.772;8.846;2022-08-19T08:10:03;19.17;;;18.17;;
253;SDS011;590;48.772;8.846;2022-08-19T08:12:46;19.63;;;18.63;;
253;SDS011;590;48.772;8.846;2022-08-19T08:15:34;19.07;;;18.10;;
253;SDS011;590;48.772;8.846;2022-08-19T08:18:08;18.23;;;17.33;;
253;SDS011;590;48.772;8.846;2022-08-19T08:20:36;18.17;;;17.27;;
253;SDS011;590;48.772;8.846;2022-08-19T08:23:04;17.30;;;16.40;;
253;SDS011;590;48.772;8.846;2022-08-19T08:25:54;18.27;;;17.37;;
253;SDS011;590;48.772;8.846;2022-08-19T08:28:23;16.73;;;15.90;;
253;SDS011;590;48.772;8.846;2022-08-19T08:30:55;19.53;;;18.53;;
253;SDS011;590;48.772;8.846;2022-08-19T08:33:25;16.63;;;15.83;;
253;SDS011;590;48.772;8.846;2022-08-19T08:36:00;16.93;;;16.03;;
253;SDS011;590;48.772;8.846;2022-08-19T08:38:30;15.90;;;15.10;;
253;SDS011;590;48.772;8.846;2022-08-19T08:41:09;17.00;;;16.10;;
253;SDS011;590;48.772;8.846;2022-08-19T08:43:46;18.20;;;17.13;;
253;SDS011;590;48.772;8.846;2022-08-19T08:46:18;16.23;;;15.43;;
253;SDS011;590;48.772;8.846;2022-08-19T08:48:59;14.90;;;14.10;;
253;SDS011;590;48.772;8.846;2022-08-19T08:51:36;14.87;;;14.10;;
253;SDS011;590;48.772;8.846;2022-08-19T08:54:12;15.50;;;14.70;;
253;SDS011;590;48.772;8.846;2022-08-19T08:56:45;15.30;;;14.50;;
253;SDS011;590;48.772;8.846;2022-08-19T08:59:19;17.90;;;17.00;;
253;SDS011;590;48.772;8.846;2022-08-19T09:01:51;16.63;;;15.80;;
253;SDS011;590;48.772;8.846;2022-08-19T09:04:19;15.37;;;14.57;;
253;SDS011;590;48.772;8.846;2022-08-19T09:06:50;16.00;;;15.10;;
253;SDS011;590;48.772;8.846;2022-08-19T09:09:26;16.30;;;15.50;;
253;SDS011;590;48.772;8.846;2022-08-19T09:12:03;17.90;;;17.00;;
253;SDS011;590;48.772;8.846;2022-08-19T09:14:44;15.93;;;15.13;;
253;SDS011;590;48.772;8.846;2022-08-19T09:17:18;16.63;;;15.80;;
253;SDS011;590;48.772;8.846;2022-08-19T09:19:55;17.73;;;16.83;;
253;SDS011;590;48.772;8.846;2022-08-19T09:22:24;15.97;;;15.17;;
253;SDS011;590;48.772;8.846;2022-08-19T09:24:53;14.57;;;13.83;;
253;SDS011;590;48.772;8.846;2022-08-19T09:27:24;17.47;;;16.57;;
253;SDS011;590;48.772;8.846;2022-08-19T09:30:11;14.67;;;13.93;;
253;SDS011;590;48.772;8.846;2022-08-19T09:32:42;17.67;;;16.77;;
253;SDS011;590;48.772;8.846;2022-08-19T09:35:12;15.80;;;15.00;;
253;SDS011;590;48.772;8.846;2022-08-19T09:37:41;15.40;;;14.60;;
253;SDS011;590;48.772;8.846;2022-08-19T09:40:10;16.30;;;15.50;;
253;SDS011;590;48.772;8.846;2022-08-19T09:42:42;15.23;;;14.43;;
253;SDS011;590;48.772;8.846;2022-08-19T09:45:16;14.77;;;14.00;;
253;SDS011;590;48.772;8.846;2022-08-19T09:47:47;17.80;;;16.63;;
253;SDS011;590;48.772;8.846;2022-08-19T09:50:20;16.03;;;15.23;;
253;SDS011;590;48.772;8.846;2022-08-19T09:52:49;16.20;;;15.40;;
253;SDS011;590;48.772;8.846;2022-08-19T09:55:22;15.90;;;15.10;;
253;SDS011;590;48.772;8.846;2022-08-19T09:58:02;15.00;;;14.20;;
253;SDS011;590;48.772;8.846;2022-08-19T10:00:30;14.83;;;14.07;;
253;SDS011;590;48.772;8.846;2022-08-19T10:02:58;15.77;;;14.97;;
253;SDS011;590;48.772;8.846;2022-08-19T10:05:26;13.50;;;12.80;;
253;SDS011;590;48.772;8.846;2022-08-19T10:08:14;14.30;;;13.60;;
253;SDS011;590;48.772;8.846;2022-08-19T10:10:46;12.17;;;11.57;;
253;SDS011;590;48.772;8.846;2022-08-19T10:13:16;11.47;;;10.87;;
253;SDS011;590;48.772;8.846;2022-08-19T10:15:48;13.30;;;12.60;;
253;SDS011;590;48.772;8.846;2022-08-19T10:18:18;11.73;;;11.13;;
253;SDS011;590;48.772;8.846;2022-08-19T10:20:48;13.43;;;12.73;;
253;SDS011;590;48.772;8.846;2022-08-19T10:23:18;11.83;;;11.23;;
253;SDS011;590;48.772;8.846;2022-08-19T10:25:47;13.00;;;12.30;;
253;SDS011;590;48.772;8.846;2022-08-19T10:28:18;12.03;;;11.43;;
253;SDS011;590;48.772;8.846;2022-08-19T10:30:48;12.80;;;12.10;;
253;SDS011;590;48.772;8.846;2022-08-19T10:33:16;13.13;;;12.43;;
253;SDS011;590;48.772;8.846;2022-08-19T10:36:05;13.37;;;12.67;;
253;SDS011;590;48.772;8.846;2022-08-19T10:38:36;13.43;;;12.73;;
253;SDS011;590;48.772;8.846;2022-08-19T10:41:16;11.87;;;11.27;;
253;SDS011;590;48.772;8.846;2022-08-19T10:43:46;11.17;;;10.57;;
253;SDS011;590;48.772;8.846;2022-08-19T10:46:14;11.90;;;11.30;;
253;SDS011;590;48.772;8.846;2022-08-19T10:48:44;10.17;;;9.67;;
253;SDS011;590;48.772;8.846;2022-08-19T10:51:12;10.40;;;9.90;;
253;SDS011;590;48.772;8.846;2022-08-19T10:53:59;11.93;;;11.33;;
253;SDS011;590;48.772;8.846;2022-08-19T10:56:34;11.83;;;11.23;;
253;SDS011;590;48.772;8.846;2022-08-19T10:59:24;9.40;;;8.90;;
253;SDS011;590;48.772;8.846;2022-08-19T11:02:01;11.00;;;10.40;;
253;SDS011;590;48.772;8.846;2022-08-19T11:04:32;10.57;;;10.00;;
253;SDS011;590;48.772;8.846;2022-08-19T11:07:01;10.07;;;9.57;;
253;SDS011;590;48.772;8.846;2022-08-19T11:09:29;8.83;;;8.33;;
253;SDS011;590;48.772;8.846;2022-08-19T11:11:59;9.47;;;8.97;;
253;SDS011;590;48.772;8.846;2022-08-19T11:14:51;9.40;;;8.90;;
253;SDS011;590;48.772;8.846;2022-08-19T11:17:20;11.97;;;11.37;;
253;SDS011;590;48.772;8.846;2022-08-19T11:19:49;9.63;;;9.13;;
253;SDS011;590;48.772;8.846;2022-08-19T11:22:17;10.87;;;10.27;;
253;SDS011;590;48.772;8.846;2022-08-19T11:24:46;11.10;;;10.50;;
253;SDS011;590;48.772;8.846;2022-08-19T11:27:14;9.80;;;9.30;;
253;SDS011;590;48.772;8.846;2022-08-19T11:29:42;10.13;;;8.73;;
253;SDS011;590;48.772;8.846;2022-08-19T11:32:11;8.60;;;8.10;;
253;SDS011;590;48.772;8.846;2022-08-19T11:34:40;10.27;;;9.77;;
253;SDS011;590;48.772;8.846;2022-08-19T11:37:08;8.50;;;8.00;;
253;SDS011;590;48.772;8.846;2022-08-19T11:39:37;8.33;;;7.90;;
253;SDS011;590;48.772;8.846;2022-08-19T11:42:05;10.60;;;10.00;;
253;SDS011;590;48.772;8.846;2022-08-19T11:44:48;8.37;;;7.93;;
253;SDS011;590;48.772;8.846;2022-08-19T11:47:17;8.00;;;7.60;;
253;SDS011;590;48.772;8.846;2022-08-19T11:49:46;8.63;;;8.13;;
253;SDS011;590;48.772;8.846;2022-08-19T11:52:14;8.90;;;8.40;;
253;SDS011;590;48.772;8.846;2022-08-19T11:54:42;9.00;;;8.50;;
253;SDS011;590;48.772;8.846;2022-08-19T11:57:10;7.90;;;7.50;;
253;SDS011;590;48.772;8.846;2022-08-19T11:59:41;8.00;;;7.60;;
253;SDS011;590;48.772;8.846;2022-08-19T12:02:08;8.63;;;8.13;;
253;SDS011;590;48.772;8.846;2022-08-19T12:04:38;8.20;;;7.77;;
253;SDS011;590;48.772;8.846;2022-08-19T12:07:06;7.40;;;7.00;;
253;SDS011;590;48.772;8.846;2022-08-19T12:09:34;6.83;;;6.43;;
253;SDS011;590;48.772;8.846;2022-08-19T12:12:07;7.73;;;7.33;;
253;SDS011;590;48.772;8.846;2022-08-19T12:14:35;7.83;;;7.43;;
253;SDS011;590;48.772;8.846;2022-08-19T12:17:03;7.50;;;7.10;;
253;SDS011;590;48.772;8.846;2022-08-19T12:19:35;7.83;;;7.43;;
253;SDS011;590;48.772;8.846;2022-08-19T12:22:06;8.63;;;8.13;;
253;SDS011;590;48.772;8.846;2022-08-19T12:24:34;7.87;;;7.47;;
253;SDS011;590;48.772;8.846;2022-08-19T12:27:03;7.90;;;7.50;;
253;SDS011;590;48.772;8.846;2022-08-19T12:29:34;7.23;;;6.83;;
253;SDS011;590;48.772;8.846;2022-08-19T12:32:02;7.37;;;6.97;;
253;SDS011;590;48.772;8.846;2022-08-19T12:34:31;7.47;;;7.07;;
253;SDS011;590;48.772;8.846;2022-08-19T12:37:01;7.47;;;7.07;;
253;SDS011;590;48.772;8.846;2022-08-19T12:39:34;8.53;;;8.03;;
253;SDS011;590;48.772;8.846;2022-08-19T12:42:04;7.50;;;7.10;;
253;SDS011;590;48.772;8.846;2022-08-19T12:44:33;6.90;;;6.50;;
253;SDS011;590;48.772;8.846;2022-08-19T12:47:02;7.30;;;6.90;;
253;SDS011;590;48.772;8.846;2022-08-19T12:49:34;7.50;;;7.10;;
253;SDS011;590;48.772;8.846;2022-08-19T12:52:21;7.40;;;7.00;;
253;SDS011;590;48.772;8.846;2022-08-19T12:54:53;7.63;;;7.23;;
253;SDS011;590;48.772;8.846;2022-08-19T12:57:22;7.83;;;7.43;;
253;SDS011;590;48.772;8.846;2022-08-19T12:59:58;8.10;;;7.70;;
253;SDS011;590;48.772;8.846;2022-08-19T13:02:31;7.80;;;7.40;;
253;SDS011;590;48.772;8.846;2022-08-19T13:05:05;6.93;;;6.53;;
253;SDS011;590;48.772;8.846;2022-08-19T13:07:36;9.60;;;9.10;;
253;SDS011;590;48.772;8.846;2022-08-19T13:10:07;9.17;;;8.67;;
253;SDS011;590;48.772;8.846;2022-08-19T13:12:37;8.33;;;7.90;;
253;SDS011;590;48.772;8.846;2022-08-19T13:15:05;9.30;;;8.80;;
253;SDS011;590;48.772;8.846;2022-08-19T13:17:36;9.80;;;9.30;;
253;SDS011;590;48.772;8.846;2022-08-19T13:20:06;9.67;;;9.17;;
253;SDS011;590;48.772;8.846;2022-08-19T13:22:35;10.20;;;9.70;;
253;SDS011;590;48.772;8.846;2022-08-19T13:25:04;9.90;;;9.40;;
253;SDS011;590;48.772;8.846;2022-08-19T13:27:34;10.37;;;9.87;;
253;SDS011;590;48.772;8.846;2022-08-19T13:30:03;10.20;;;9.70;;
253;SDS011;590;48.772;8.846;2022-08-19T13:32:50;10.27;;;9.77;;
253;SDS011;590;48.772;8.846;2022-08-19T13:35:35;9.20;;;8.70;;
253;SDS011;590;48.772;8.846;2022-08-19T13:38:04;10.17;;;9.67;;
253;SDS011;590;48.772;8.846;2022-08-19T13:40:37;9.50;;;9.00;;
253;SDS011;590;48.772;8.846;2022-08-19T13:43:08;9.47;;;8.97;;
253;SDS011;590;48.772;8.846;2022-08-19T13:45:48;10.10;;;9.60;;
253;SDS011;590;48.772;8.846;2022-08-19T13:48:18;10.00;;;9.50;;
253;SDS011;590;48.772;8.846;2022-08-19T13:50:47;10.30;;;9.80;;
253;SDS011;590;48.772;8.846;2022-08-19T13:53:15;9.60;;;9.10;;
253;SDS011;590;48.772;8.846;2022-08-19T13:55:43;9.70;;;9.20;;
253;SDS011;590;48.772;8.846;2022-08-19T13:58:13;9.70;;;9.20;;
253;SDS011;590;48.772;8.846;2022-08-19T14:00:42;9.37;;;8.87;;
253;SDS011;590;48.772;8.846;2022-08-19T14:03:13;10.17;;;9.67;;
253;SDS011;590;48.772;8.846;2022-08-19T14:05:41;9.70;;;9.20;;
253;SDS011;590;48.772;8.846;2022-08-19T14:08:09;10.20;;;9.70;;
253;SDS011;590;48.772;8.846;2022-08-19T14:10:40;9.10;;;8.60;;
253;SDS011;590;48.772;8.846;2022-08-19T14:13:12;9.20;;;8.70;;
253;SDS011;590;48.772;8.846;2022-08-19T14:15:43;10.83;;;10.23;;
253;SDS011;590;48.772;8.846;2022-08-19T14:18:13;9.50;;;9.00;;
253;SDS011;590;48.772;8.846;2022-08-19T14:20:41;9.57;;;9.07;;
253;SDS011;590;48.772;8.846;2022-08-19T14:23:10;9.83;;;9.33;;
253;SDS011;590;48.772;8.846;2022-08-19T14:25:39;9.03;;;8.53;;
253;SDS011;590;48.772;8.846;2022-08-19T14:28:08;10.63;;;10.03;;
253;SDS011;590;48.772;8.846;2022-08-19T14:30:37;9.57;;;9.07;;
253;SDS011;590;48.772;8.846;2022-08-19T14:33:06;9.60;;;9.10;;
253;SDS011;590;48.772;8.846;2022-08-19T14:35:34;9.43;;;8.93;;
253;SDS011;590;48.772;8.846;2022-08-19T14:38:04;8.70;;;8.20;;
253;SDS011;590;48.772;8.846;2022-08-19T14:40:33;8.20;;;7.80;;
253;SDS011;590;48.772;8.846;2022-08-19T14:43:02;8.50;;;8.00;;
253;SDS011;590;48.772;8.846;2022-08-19T14:45:32;9.80;;;9.30;;
253;SDS011;590;48.772;8.846;2022-08-19T14:48:03;8.70;;;8.20;;
253;SDS011;590;48.772;8.846;2022-08-19T14:50:32;8.80;;;8.30;;
253;SDS011;590;48.772;8.846;2022-08-19T14:53:01;9.00;;;8.50;;
253;SDS011;590;48.772;8.846;2022-08-19T14:55:41;9.90;;;9.40;;
253;SDS011;590;48.772;8.846;2022-08-19T14:58:10;9.07;;;8.57;;
253;SDS011;590;48.772;8.846;2022-08-19T15:00:56;9.47;;;8.97;;
253;SDS011;590;48.772;8.846;2022-08-19T15:03:27;9.20;;;8.70;;
253;SDS011;590;48.772;8.846;2022-08-19T15:05:58;9.77;;;9.27;;
253;SDS011;590;48.772;8.846;2022-08-19T15:08:28;9.40;;;8.90;;
253;SDS011;590;48.772;8.846;2022-08-19T15:10:57;9.37;;;8.87;;
253;SDS011;590;48.772;8.846;2022-08-19T15:13:26;9.27;;;8.77;;
253;SDS011;590;48.772;8.846;2022-08-19T15:15:56;9.60;;;9.10;;
253;SDS011;590;48.772;8.846;2022-08-19T15:18:24;9.33;;;8.83;;
253;SDS011;590;48.772;8.846;2022-08-19T15:20:53;8.53;;;8.03;;
253;SDS011;590;48.772;8.846;2022-08-19T15:23:23;8.50;;;8.00;;
253;SDS011;590;48.772;8.846;2022-08-19T15:25:51;9.70;;;9.20;;
253;SDS011;590;48.772;8.846;2022-08-19T15:28:21;9.40;;;8.90;;
253;SDS011;590;48.772;8.846;2022-08-19T15:30:49;8.07;;;7.67;;
253;SDS011;590;48.772;8.846;2022-08-19T15:33:18;8.83;;;8.33;;
253;SDS011;590;48.772;8.846;2022-08-19T15:35:47;8.30;;;7.90;;
253;SDS011;590;48.772;8.846;2022-08-19T15:38:18;8.17;;;7.77;;
253;SDS011;590;48.772;8.846;2022-08-19T15:40:47;7.97;;;7.57;;
253;SDS011;590;48.772;8.846;2022-08-19T15:43:17;8.03;;;7.63;;
253;SDS011;590;48.772;8.846;2022-08-19T15:45:47;8.43;;;7.97;;
253;SDS011;590;48.772;8.846;2022-08-19T15:48:15;7.53;;;7.13;;
253;SDS011;590;48.772;8.846;2022-08-19T15:50:43;8.90;;;8.40;;